sensor_id;sensor_type;location;lat;lon;timestamp;pressure;altitude;pressure_sealevel;temperature;humidity
43281;BME280;62175;49.416;8.690;2022-07-10T00:00:58;101193.67;;;21.93;52.65
43281;BME280;62175;49.416;8.690;2022-07-10T00:03:25;101190.77;;;21.98;52.49
43281;BME280;62175;49.416;8.690;2022-07-10T00:05:53;101192.13;;;21.51;53.46
43281;BME280;62175;49.416;8.690;2022-07-10T00:08:19;101193.52;;;21.71;53.50
43281;BME280;62175;49.416;8.690;2022-07-10T00:10:46;101192.47;;;21.59;53.51
43281;BME280;62175;49.416;8.690;2022-07-10T00:13:13;101196.46;;;21.75;52.96
43281;BME280;62175;49.416;8.690;2022-07-10T00:15:41;101199.46;;;21.47;53.13
43281;BME280;62175;49.416;8.690;2022-07-10T00:18:10;101196.75;;;21.64;53.22
43281;BME280;62175;49.416;8.690;2022-07-10T00:20:37;101201.30;;;21.37;53.49
43281;BME280;62175;49.416;8.690;2022-07-10T00:23:04;101202.14;;;21.95;52.66
43281;BME280;62175;49.416;8.690;2022-07-10T00:25:31;101203.53;;;21.79;53.05
43281;BME280;62175;49.416;8.690;2022-07-10T00:27:59;101201.99;;;21.66;53.10
43281;BME280;62175;49.416;8.690;2022-07-10T00:30:26;101201.89;;;21.28;53.35
43281;BME280;62175;49.416;8.690;2022-07-10T00:32:54;101202.41;;;21.74;53.18
43281;BME280;62175;49.416;8.690;2022-07-10T00:35:21;101202.63;;;21.67;53.49
43281;BME280;62175;49.416;8.690;2022-07-10T00:37:50;101204.39;;;21.55;53.54
43281;BME280;62175;49.416;8.690;2022-07-10T00:40:17;101203.75;;;21.62;53.68
43281;BME280;62175;49.416;8.690;2022-07-10T00:42:44;101203.57;;;21.29;53.71
43281;BME280;62175;49.416;8.690;2022-07-10T00:45:11;101201.05;;;21.31;53.92
43281;BME280;62175;49.416;8.690;2022-07-10T00:47:38;101199.44;;;21.20;54.38
43281;BME280;62175;49.416;8.690;2022-07-10T00:50:06;101201.25;;;21.50;53.48
43281;BME280;62175;49.416;8.690;2022-07-10T00:52:35;101195.02;;;21.27;53.78
43281;BME280;62175;49.416;8.690;2022-07-10T00:55:02;101197.18;;;21.44;53.36
43281;BME280;62175;49.416;8.690;2022-07-10T00:57:30;101200.07;;;21.36;53.56
43281;BME280;62175;49.416;8.690;2022-07-10T00:59:58;101203.37;;;21.50;53.70
43281;BME280;62175;49.416;8.690;2022-07-10T01:02:25;101204.15;;;21.36;53.53
43281;BME280;62175;49.416;8.690;2022-07-10T01:04:55;101204.74;;;21.32;53.70
43281;BME280;62175;49.416;8.690;2022-07-10T01:07:23;101206.14;;;21.06;54.70
43281;BME280;62175;49.416;8.690;2022-07-10T01:09:50;101206.55;;;21.06;54.55
43281;BME280;62175;49.416;8.690;2022-07-10T01:12:17;101207.25;;;21.26;54.42
43281;BME280;62175;49.416;8.690;2022-07-10T01:14:45;101208.71;;;21.48;54.48
43281;BME280;62175;49.416;8.690;2022-07-10T01:17:13;101210.17;;;21.02;54.62
43281;BME280;62175;49.416;8.690;2022-07-10T01:19:40;101208.21;;;21.12;54.54
43281;BME280;62175;49.416;8.690;2022-07-10T01:22:08;101208.64;;;20.81;54.35
43281;BME280;62175;49.416;8.690;2022-07-10T01:24:36;101210.56;;;21.22;54.43
43281;BME280;62175;49.416;8.690;2022-07-10T01:27:03;101205.97;;;21.10;54.69
43281;BME280;62175;49.416;8.690;2022-07-10T01:29:30;101211.48;;;21.08;54.52
43281;BME280;62175;49.416;8.690;2022-07-10T01:31:57;101213.92;;;20.71;54.28
43281;BME280;62175;49.416;8.690;2022-07-10T01:34:31;101210.87;;;21.09;54.45
43281;BME280;62175;49.416;8.690;2022-07-10T01:36:59;101213.12;;;20.97;54.39
43281;BME280;62175;49.416;8.690;2022-07-10T01:39:26;101209.14;;;21.13;54.54
43281;BME280;62175;49.416;8.690;2022-07-10T01:41:54;101212.64;;;20.52;54.59
43281;BME280;62175;49.416;8.690;2022-07-10T01:44:21;101215.17;;;20.75;54.97
43281;BME280;62175;49.416;8.690;2022-07-10T01:46:48;101219.59;;;20.86;54.98
43281;BME280;62175;49.416;8.690;2022-07-10T01:49:15;101225.36;;;20.68;54.76
43281;BME280;62175;49.416;8.690;2022-07-10T01:51:42;101229.79;;;20.41;54.60
43281;BME280;62175;49.416;8.690;2022-07-10T01:54:09;101232.71;;;20.92;54.57
43281;BME280;62175;49.416;8.690;2022-07-10T01:56:37;101236.54;;;20.97;54.28
43281;BME280;62175;49.416;8.690;2022-07-10T01:59:05;101239.85;;;21.21;54.76
43281;BME280;62175;49.416;8.690;2022-07-10T02:01:34;101239.18;;;21.01;54.92
43281;BME280;62175;49.416;8.690;2022-07-10T02:04:02;101242.34;;;21.36;54.16
43281;BME280;62175;49.416;8.690;2022-07-10T02:06:29;101237.01;;;21.01;54.32
43281;BME280;62175;49.416;8.690;2022-07-10T02:08:57;101237.97;;;20.59;55.38
43281;BME280;62175;49.416;8.690;2022-07-10T02:11:25;101243.40;;;20.82;54.22
43281;BME280;62175;49.416;8.690;2022-07-10T02:13:53;101244.90;;;20.29;55.26
43281;BME280;62175;49.416;8.690;2022-07-10T02:16:24;101239.50;;;20.96;54.92
43281;BME280;62175;49.416;8.690;2022-07-10T02:18:52;101240.62;;;20.58;55.23
43281;BME280;62175;49.416;8.690;2022-07-10T02:21:19;101241.74;;;20.79;54.55
43281;BME280;62175;49.416;8.690;2022-07-10T02:23:46;101246.38;;;20.59;54.56
43281;BME280;62175;49.416;8.690;2022-07-10T02:26:13;101248.62;;;20.64;54.76
43281;BME280;62175;49.416;8.690;2022-07-10T02:28:40;101250.17;;;20.46;55.38
43281;BME280;62175;49.416;8.690;2022-07-10T02:31:07;101247.81;;;20.76;54.08
43281;BME280;62175;49.416;8.690;2022-07-10T02:33:34;101247.55;;;20.87;54.21
43281;BME280;62175;49.416;8.690;2022-07-10T02:36:01;101246.89;;;20.51;54.94
43281;BME280;62175;49.416;8.690;2022-07-10T02:38:28;101242.34;;;20.48;54.78
43281;BME280;62175;49.416;8.690;2022-07-10T02:40:56;101241.25;;;20.26;55.14
43281;BME280;62175;49.416;8.690;2022-07-10T02:43:23;101245.35;;;20.89;54.69
43281;BME280;62175;49.416;8.690;2022-07-10T02:45:51;101249.25;;;20.47;53.80
43281;BME280;62175;49.416;8.690;2022-07-10T02:48:18;101250.18;;;20.37;53.79
43281;BME280;62175;49.416;8.690;2022-07-10T02:50:45;101252.39;;;20.71;53.86
43281;BME280;62175;49.416;8.690;2022-07-10T02:53:12;101257.77;;;20.53;54.34
43281;BME280;62175;49.416;8.690;2022-07-10T02:55:39;101258.48;;;20.81;54.22
43281;BME280;62175;49.416;8.690;2022-07-10T02:58:06;101263.51;;;20.97;53.27
43281;BME280;62175;49.416;8.690;2022-07-10T03:00:33;101261.41;;;20.60;53.46
43281;BME280;62175;49.416;8.690;2022-07-10T03:03:00;101257.81;;;21.01;53.40
43281;BME280;62175;49.416;8.690;2022-07-10T03:05:27;101255.59;;;20.51;53.58
43281;BME280;62175;49.416;8.690;2022-07-10T03:07:55;101251.19;;;20.87;53.22
43281;BME280;62175;49.416;8.690;2022-07-10T03:10:22;101250.68;;;20.58;53.15
43281;BME280;62175;49.416;8.690;2022-07-10T03:12:49;101248.67;;;20.55;53.42
43281;BME280;62175;49.416;8.690;2022-07-10T03:15:17;101249.27;;;20.65;53.00
43281;BME280;62175;49.416;8.690;2022-07-10T03:17:45;101251.13;;;20.66;52.38
43281;BME280;62175;49.416;8.690;2022-07-10T03:20:12;101250.91;;;20.58;53.29
43281;BME280;62175;49.416;8.690;2022-07-10T03:22:39;101252.01;;;20.97;53.67
43281;BME280;62175;49.416;8.690;2022-07-10T03:25:06;101253.55;;;20.81;53.09
43281;BME280;62175;49.416;8.690;2022-07-10T03:27:34;101252.59;;;20.76;52.42
43281;BME280;62175;49.416;8.690;2022-07-10T03:30:00;101254.84;;;20.51;52.94
43281;BME280;62175;49.416;8.690;2022-07-10T03:32:27;101258.47;;;20.40;52.70
43281;BME280;62175;49.416;8.690;2022-07-10T03:34:54;101255.05;;;20.70;53.32
43281;BME280;62175;49.416;8.690;2022-07-10T03:37:22;101255.63;;;20.75;52.77
43281;BME280;62175;49.416;8.690;2022-07-10T03:39:49;101257.36;;;20.63;53.36
43281;BME280;62175;49.416;8.690;2022-07-10T03:42:16;101257.73;;;20.28;52.79
43281;BME280;62175;49.416;8.690;2022-07-10T03:44:43;101258.87;;;20.97;52.26
43281;BME280;62175;49.416;8.690;2022-07-10T03:47:11;101261.76;;;20.69;52.34
43281;BME280;62175;49.416;8.690;2022-07-10T03:49:39;101263.42;;;20.85;52.47
43281;BME280;62175;49.416;8.690;2022-07-10T03:52:06;101264.16;;;20.24;52.34
43281;BME280;62175;49.416;8.690;2022-07-10T03:54:34;101263.96;;;20.32;52.50
43281;BME280;62175;49.416;8.690;2022-07-10T03:57:04;101265.50;;;20.44;52.63
43281;BME280;62175;49.416;8.690;2022-07-10T03:59:31;101266.00;;;20.35;52.41
43281;BME280;62175;49.416;8.690;2022-07-10T04:01:58;101267.93;;;20.63;52.62
43281;BME280;62175;49.416;8.690;2022-07-10T04:04:25;101269.07;;;20.23;52.82
43281;BME280;62175;49.416;8.690;2022-07-10T04:06:52;101265.01;;;20.35;52.64
43281;BME280;62175;49.416;8.690;2022-07-10T04:09:20;101267.98;;;20.76;52.25
43281;BME280;62175;49.416;8.690;2022-07-10T04:11:47;101269.63;;;20.55;52.02
43281;BME280;62175;49.416;8.690;2022-07-10T04:14:14;101270.30;;;20.46;52.27
43281;BME280;62175;49.416;8.690;2022-07-10T04:16:42;101267.23;;;20.33;52.34
43281;BME280;62175;49.416;8.690;2022-07-10T04:19:09;101259.91;;;20.35;52.10
43281;BME280;62175;49.416;8.690;2022-07-10T04:21:36;101264.37;;;20.83;52.15
43281;BME280;62175;49.416;8.690;2022-07-10T04:24:04;101266.51;;;20.60;51.81
43281;BME280;62175;49.416;8.690;2022-07-10T04:26:32;101265.92;;;20.97;51.26
43281;BME280;62175;49.416;8.690;2022-07-10T04:29:00;101260.35;;;20.35;51.43
43281;BME280;62175;49.416;8.690;2022-07-10T04:31:28;101259.03;;;20.14;52.05
43281;BME280;62175;49.416;8.690;2022-07-10T04:33:55;101260.19;;;20.29;51.58
43281;BME280;62175;49.416;8.690;2022-07-10T04:36:22;101268.53;;;20.53;51.69
43281;BME280;62175;49.416;8.690;2022-07-10T04:38:49;101272.21;;;20.33;50.93
43281;BME280;62175;49.416;8.690;2022-07-10T04:41:17;101268.95;;;20.30;51.74
43281;BME280;62175;49.416;8.690;2022-07-10T04:43:44;101267.07;;;20.02;52.30
43281;BME280;62175;49.416;8.690;2022-07-10T04:49:28;101267.24;;;20.88;51.38
43281;BME280;62175;49.416;8.690;2022-07-10T04:52:02;101274.35;;;20.45;51.01
43281;BME280;62175;49.416;8.690;2022-07-10T04:54:30;101286.38;;;20.02;51.60
43281;BME280;62175;49.416;8.690;2022-07-10T04:56:58;101283.00;;;20.29;50.97
43281;BME280;62175;49.416;8.690;2022-07-10T04:59:26;101282.50;;;20.40;51.02
43281;BME280;62175;49.416;8.690;2022-07-10T05:01:53;101278.91;;;20.57;51.08
43281;BME280;62175;49.416;8.690;2022-07-10T05:04:20;101276.83;;;20.58;51.07
43281;BME280;62175;49.416;8.690;2022-07-10T05:06:47;101281.87;;;20.41;50.85
43281;BME280;62175;49.416;8.690;2022-07-10T05:09:15;101287.68;;;20.14;50.69
43281;BME280;62175;49.416;8.690;2022-07-10T05:11:42;101295.08;;;20.17;50.88
43281;BME280;62175;49.416;8.690;2022-07-10T05:14:09;101296.08;;;20.31;50.66
43281;BME280;62175;49.416;8.690;2022-07-10T05:16:36;101300.58;;;20.32;51.05
43281;BME280;62175;49.416;8.690;2022-07-10T05:19:03;101295.62;;;19.96;50.80
43281;BME280;62175;49.416;8.690;2022-07-10T05:21:31;101293.89;;;20.21;51.60
43281;BME280;62175;49.416;8.690;2022-07-10T05:23:59;101301.00;;;20.20;50.81
43281;BME280;62175;49.416;8.690;2022-07-10T05:26:29;101312.39;;;20.53;50.25
43281;BME280;62175;49.416;8.690;2022-07-10T05:28:58;101316.32;;;20.19;50.44
43281;BME280;62175;49.416;8.690;2022-07-10T05:31:27;101313.34;;;20.12;50.37
43281;BME280;62175;49.416;8.690;2022-07-10T05:33:54;101313.16;;;19.56;50.44
43281;BME280;62175;49.416;8.690;2022-07-10T05:36:22;101315.79;;;20.27;50.62
43281;BME280;62175;49.416;8.690;2022-07-10T05:38:52;101316.35;;;20.26;50.15
43281;BME280;62175;49.416;8.690;2022-07-10T05:41:21;101315.27;;;20.16;50.08
43281;BME280;62175;49.416;8.690;2022-07-10T05:43:50;101322.45;;;20.02;49.60
43281;BME280;62175;49.416;8.690;2022-07-10T05:46:50;101320.84;;;20.40;49.72
43281;BME280;62175;49.416;8.690;2022-07-10T05:49:17;101321.45;;;20.39;49.06
43281;BME280;62175;49.416;8.690;2022-07-10T05:51:44;101325.54;;;20.69;48.69
43281;BME280;62175;49.416;8.690;2022-07-10T05:54:11;101327.41;;;20.24;48.86
43281;BME280;62175;49.416;8.690;2022-07-10T05:56:40;101333.54;;;19.57;49.73
43281;BME280;62175;49.416;8.690;2022-07-10T05:59:07;101335.63;;;20.02;49.07
43281;BME280;62175;49.416;8.690;2022-07-10T06:01:35;101340.57;;;19.70;48.67
43281;BME280;62175;49.416;8.690;2022-07-10T06:04:02;101335.43;;;19.81;48.57
43281;BME280;62175;49.416;8.690;2022-07-10T06:06:29;101327.53;;;20.19;49.23
43281;BME280;62175;49.416;8.690;2022-07-10T06:08:56;101325.77;;;19.94;48.66
43281;BME280;62175;49.416;8.690;2022-07-10T06:11:23;101334.28;;;19.82;48.41
43281;BME280;62175;49.416;8.690;2022-07-10T06:13:50;101338.67;;;19.58;50.16
43281;BME280;62175;49.416;8.690;2022-07-10T06:16:18;101338.51;;;20.07;47.82
43281;BME280;62175;49.416;8.690;2022-07-10T06:18:46;101336.80;;;19.95;47.47
43281;BME280;62175;49.416;8.690;2022-07-10T06:21:13;101333.26;;;19.97;47.78
43281;BME280;62175;49.416;8.690;2022-07-10T06:23:41;101337.70;;;19.87;47.92
43281;BME280;62175;49.416;8.690;2022-07-10T06:26:08;101340.57;;;19.94;47.57
43281;BME280;62175;49.416;8.690;2022-07-10T06:28:35;101336.38;;;19.83;48.05
43281;BME280;62175;49.416;8.690;2022-07-10T06:31:28;101338.09;;;20.02;48.38
43281;BME280;62175;49.416;8.690;2022-07-10T06:33:56;101339.18;;;20.21;48.05
43281;BME280;62175;49.416;8.690;2022-07-10T06:36:23;101343.24;;;19.76;48.49
43281;BME280;62175;49.416;8.690;2022-07-10T06:38:50;101347.64;;;20.03;48.02
43281;BME280;62175;49.416;8.690;2022-07-10T06:41:17;101344.32;;;20.14;47.69
43281;BME280;62175;49.416;8.690;2022-07-10T06:43:44;101353.64;;;20.09;47.98
43281;BME280;62175;49.416;8.690;2022-07-10T06:46:11;101353.02;;;20.00;46.49
43281;BME280;62175;49.416;8.690;2022-07-10T06:48:38;101348.96;;;20.10;46.79
43281;BME280;62175;49.416;8.690;2022-07-10T06:51:06;101341.47;;;19.87;47.07
43281;BME280;62175;49.416;8.690;2022-07-10T06:53:33;101337.76;;;19.99;46.78
43281;BME280;62175;49.416;8.690;2022-07-10T06:56:01;101340.87;;;19.90;47.31
43281;BME280;62175;49.416;8.690;2022-07-10T06:58:29;101337.88;;;19.96;47.05
43281;BME280;62175;49.416;8.690;2022-07-10T07:00:57;101338.75;;;20.22;46.71
43281;BME280;62175;49.416;8.690;2022-07-10T07:03:24;101340.84;;;20.43;47.26
43281;BME280;62175;49.416;8.690;2022-07-10T07:05:52;101338.99;;;20.52;46.07
43281;BME280;62175;49.416;8.690;2022-07-10T07:08:19;101342.14;;;20.32;46.48
43281;BME280;62175;49.416;8.690;2022-07-10T07:10:47;101343.28;;;20.16;46.89
43281;BME280;62175;49.416;8.690;2022-07-10T07:13:15;101343.84;;;20.05;48.42
43281;BME280;62175;49.416;8.690;2022-07-10T07:15:43;101352.20;;;19.98;46.38
43281;BME280;62175;49.416;8.690;2022-07-10T07:18:10;101349.28;;;19.99;46.23
43281;BME280;62175;49.416;8.690;2022-07-10T07:20:37;101348.18;;;19.93;46.86
43281;BME280;62175;49.416;8.690;2022-07-10T07:23:04;101351.29;;;19.93;45.74
43281;BME280;62175;49.416;8.690;2022-07-10T07:25:31;101357.33;;;20.09;45.91
43281;BME280;62175;49.416;8.690;2022-07-10T07:27:59;101354.15;;;20.03;44.42
43281;BME280;62175;49.416;8.690;2022-07-10T07:30:27;101347.28;;;20.13;44.85
43281;BME280;62175;49.416;8.690;2022-07-10T07:32:54;101350.38;;;19.93;44.42
43281;BME280;62175;49.416;8.690;2022-07-10T07:35:21;101352.45;;;20.13;43.72
43281;BME280;62175;49.416;8.690;2022-07-10T07:37:50;101354.25;;;20.04;43.82
43281;BME280;62175;49.416;8.690;2022-07-10T07:40:19;101355.89;;;20.04;44.64
43281;BME280;62175;49.416;8.690;2022-07-10T07:42:47;101357.95;;;20.24;43.93
43281;BME280;62175;49.416;8.690;2022-07-10T07:45:14;101358.48;;;20.15;44.09
43281;BME280;62175;49.416;8.690;2022-07-10T07:47:45;101357.15;;;20.15;43.51
43281;BME280;62175;49.416;8.690;2022-07-10T07:50:14;101358.06;;;20.25;43.02
43281;BME280;62175;49.416;8.690;2022-07-10T07:52:42;101356.44;;;20.04;43.08
43281;BME280;62175;49.416;8.690;2022-07-10T07:55:10;101358.61;;;20.04;43.75
43281;BME280;62175;49.416;8.690;2022-07-10T07:57:37;101361.67;;;20.18;42.88
43281;BME280;62175;49.416;8.690;2022-07-10T08:00:07;101358.32;;;20.29;42.98
43281;BME280;62175;49.416;8.690;2022-07-10T08:02:36;101351.99;;;20.34;43.60
43281;BME280;62175;49.416;8.690;2022-07-10T08:05:04;101353.19;;;20.12;42.04
43281;BME280;62175;49.416;8.690;2022-07-10T08:07:35;101351.73;;;20.17;42.41
43281;BME280;62175;49.416;8.690;2022-07-10T08:10:03;101345.30;;;20.65;41.79
43281;BME280;62175;49.416;8.690;2022-07-10T08:12:32;101343.82;;;20.75;40.87
43281;BME280;62175;49.416;8.690;2022-07-10T08:15:00;101345.45;;;20.37;42.77
43281;BME280;62175;49.416;8.690;2022-07-10T08:17:27;101341.31;;;20.69;40.22
43281;BME280;62175;49.416;8.690;2022-07-10T08:19:55;101343.63;;;20.44;40.40
43281;BME280;62175;49.416;8.690;2022-07-10T08:22:22;101336.72;;;20.47;40.88
43281;BME280;62175;49.416;8.690;2022-07-10T08:24:49;101335.56;;;20.40;41.07
43281;BME280;62175;49.416;8.690;2022-07-10T08:27:16;101337.12;;;20.60;40.29
43281;BME280;62175;49.416;8.690;2022-07-10T08:29:43;101335.81;;;20.94;40.84
43281;BME280;62175;49.416;8.690;2022-07-10T08:32:11;101333.04;;;20.31;39.67
43281;BME280;62175;49.416;8.690;2022-07-10T08:34:39;101330.60;;;20.66;39.99
43281;BME280;62175;49.416;8.690;2022-07-10T08:37:06;101329.30;;;20.44;38.69
43281;BME280;62175;49.416;8.690;2022-07-10T08:39:34;101328.97;;;20.35;40.13
43281;BME280;62175;49.416;8.690;2022-07-10T08:42:02;101321.11;;;20.35;40.70
43281;BME280;62175;49.416;8.690;2022-07-10T08:44:34;101323.34;;;20.69;39.75
43281;BME280;62175;49.416;8.690;2022-07-10T08:47:03;101323.56;;;20.56;39.58
43281;BME280;62175;49.416;8.690;2022-07-10T08:49:32;101329.44;;;20.35;39.05
43281;BME280;62175;49.416;8.690;2022-07-10T08:52:03;101329.09;;;20.45;39.87
43281;BME280;62175;49.416;8.690;2022-07-10T08:54:32;101327.69;;;20.40;39.29
43281;BME280;62175;49.416;8.690;2022-07-10T08:57:02;101335.09;;;20.17;38.83
43281;BME280;62175;49.416;8.690;2022-07-10T08:59:30;101337.00;;;20.49;38.87
43281;BME280;62175;49.416;8.690;2022-07-10T09:02:30;101331.72;;;20.28;38.20
43281;BME280;62175;49.416;8.690;2022-07-10T09:04:57;101330.36;;;20.77;40.98
43281;BME280;62175;49.416;8.690;2022-07-10T09:07:35;101321.57;;;20.65;39.30
43281;BME280;62175;49.416;8.690;2022-07-10T09:10:07;101334.39;;;21.02;39.44
43281;BME280;62175;49.416;8.690;2022-07-10T09:12:50;101334.39;;;21.21;39.37
43281;BME280;62175;49.416;8.690;2022-07-10T09:15:29;101332.20;;;20.91;39.78
43281;BME280;62175;49.416;8.690;2022-07-10T09:17:58;101340.31;;;21.09;38.63
43281;BME280;62175;49.416;8.690;2022-07-10T09:20:59;101324.81;;;20.55;38.41
43281;BME280;62175;49.416;8.690;2022-07-10T09:23:38;101333.37;;;20.67;39.02
43281;BME280;62175;49.416;8.690;2022-07-10T09:26:09;101330.29;;;20.31;39.00
43281;BME280;62175;49.416;8.690;2022-07-10T09:28:36;101330.11;;;20.59;38.76
43281;BME280;62175;49.416;8.690;2022-07-10T09:31:07;101323.26;;;20.85;39.38
43281;BME280;62175;49.416;8.690;2022-07-10T09:33:35;101324.35;;;20.69;38.76
43281;BME280;62175;49.416;8.690;2022-07-10T09:36:10;101326.47;;;20.56;38.58
43281;BME280;62175;49.416;8.690;2022-07-10T09:39:11;101322.08;;;21.03;38.46
43281;BME280;62175;49.416;8.690;2022-07-10T09:41:39;101330.61;;;20.90;38.62
43281;BME280;62175;49.416;8.690;2022-07-10T09:44:06;101329.83;;;21.28;39.14
43281;BME280;62175;49.416;8.690;2022-07-10T09:46:44;101330.65;;;20.76;39.52
43281;BME280;62175;49.416;8.690;2022-07-10T09:49:15;101324.84;;;21.06;39.24
43281;BME280;62175;49.416;8.690;2022-07-10T09:51:44;101317.09;;;21.18;38.57
43281;BME280;62175;49.416;8.690;2022-07-10T09:54:12;101321.44;;;21.35;38.35
43281;BME280;62175;49.416;8.690;2022-07-10T09:56:42;101329.99;;;21.06;38.98
43281;BME280;62175;49.416;8.690;2022-07-10T09:59:12;101330.19;;;20.70;37.39
43281;BME280;62175;49.416;8.690;2022-07-10T10:01:44;101324.51;;;21.14;38.23
43281;BME280;62175;49.416;8.690;2022-07-10T10:04:13;101323.67;;;20.97;38.14
43281;BME280;62175;49.416;8.690;2022-07-10T10:06:43;101320.66;;;20.98;40.69
43281;BME280;62175;49.416;8.690;2022-07-10T10:09:19;101318.84;;;21.18;38.93
43281;BME280;62175;49.416;8.690;2022-07-10T10:11:51;101315.45;;;21.46;40.48
43281;BME280;62175;49.416;8.690;2022-07-10T10:14:36;101310.38;;;21.05;37.36
43281;BME280;62175;49.416;8.690;2022-07-10T10:17:05;101306.72;;;21.06;36.72
43281;BME280;62175;49.416;8.690;2022-07-10T10:19:34;101308.86;;;21.34;38.14
43281;BME280;62175;49.416;8.690;2022-07-10T10:22:04;101309.15;;;21.03;38.10
43281;BME280;62175;49.416;8.690;2022-07-10T10:24:33;101302.69;;;21.36;37.55
43281;BME280;62175;49.416;8.690;2022-07-10T10:27:01;101305.49;;;21.25;39.55
43281;BME280;62175;49.416;8.690;2022-07-10T10:29:29;101306.04;;;21.19;37.54
43281;BME280;62175;49.416;8.690;2022-07-10T10:31:57;101295.93;;;21.19;40.91
43281;BME280;62175;49.416;8.690;2022-07-10T10:34:43;101291.61;;;21.62;37.25
43281;BME280;62175;49.416;8.690;2022-07-10T10:37:42;101290.73;;;21.22;37.18
43281;BME280;62175;49.416;8.690;2022-07-10T10:40:30;101284.39;;;21.17;38.40
43281;BME280;62175;49.416;8.690;2022-07-10T10:42:59;101287.24;;;21.53;36.50
43281;BME280;62175;49.416;8.690;2022-07-10T10:45:41;101291.09;;;21.48;37.01
43281;BME280;62175;49.416;8.690;2022-07-10T10:48:10;101288.75;;;21.30;38.40
43281;BME280;62175;49.416;8.690;2022-07-10T10:50:39;101292.69;;;21.36;37.65
43281;BME280;62175;49.416;8.690;2022-07-10T10:53:14;101284.17;;;21.26;39.29
43281;BME280;62175;49.416;8.690;2022-07-10T10:56:23;101289.52;;;21.17;39.04
43281;BME280;62175;49.416;8.690;2022-07-10T10:58:54;101287.17;;;20.95;37.44
43281;BME280;62175;49.416;8.690;2022-07-10T11:02:22;101288.88;;;21.20;37.44
43281;BME280;62175;49.416;8.690;2022-07-10T11:04:50;101293.38;;;20.94;36.23
43281;BME280;62175;49.416;8.690;2022-07-10T11:07:52;101283.96;;;21.24;36.41
43281;BME280;62175;49.416;8.690;2022-07-10T11:10:28;101287.15;;;21.12;36.45
43281;BME280;62175;49.416;8.690;2022-07-10T11:13:19;101292.89;;;21.33;39.19
43281;BME280;62175;49.416;8.690;2022-07-10T11:16:07;101294.27;;;21.37;36.12
43281;BME280;62175;49.416;8.690;2022-07-10T11:18:39;101301.87;;;21.79;37.49
43281;BME280;62175;49.416;8.690;2022-07-10T11:21:13;101282.98;;;21.65;37.02
43281;BME280;62175;49.416;8.690;2022-07-10T11:23:56;101283.36;;;21.64;37.88
43281;BME280;62175;49.416;8.690;2022-07-10T11:26:40;101299.38;;;21.54;36.10
43281;BME280;62175;49.416;8.690;2022-07-10T11:29:40;101284.86;;;21.95;35.55
43281;BME280;62175;49.416;8.690;2022-07-10T11:32:07;101284.48;;;21.34;35.08
43281;BME280;62175;49.416;8.690;2022-07-10T11:34:35;101277.05;;;21.35;35.98
43281;BME280;62175;49.416;8.690;2022-07-10T11:37:03;101286.05;;;21.84;35.39
43281;BME280;62175;49.416;8.690;2022-07-10T11:39:30;101284.32;;;21.73;36.61
43281;BME280;62175;49.416;8.690;2022-07-10T11:41:58;101280.05;;;21.77;37.08
43281;BME280;62175;49.416;8.690;2022-07-10T11:44:25;101275.89;;;21.77;36.27
43281;BME280;62175;49.416;8.690;2022-07-10T11:46:52;101271.68;;;21.54;36.76
43281;BME280;62175;49.416;8.690;2022-07-10T11:49:23;101272.95;;;21.85;37.31
43281;BME280;62175;49.416;8.690;2022-07-10T11:52:08;101268.40;;;22.36;36.19
43281;BME280;62175;49.416;8.690;2022-07-10T11:54:38;101267.81;;;22.30;36.01
43281;BME280;62175;49.416;8.690;2022-07-10T11:57:10;101259.33;;;22.70;34.82
43281;BME280;62175;49.416;8.690;2022-07-10T11:59:37;101263.24;;;22.59;35.68
43281;BME280;62175;49.416;8.690;2022-07-10T12:02:04;101257.43;;;22.44;35.92
43281;BME280;62175;49.416;8.690;2022-07-10T12:04:32;101258.93;;;22.54;35.66
43281;BME280;62175;49.416;8.690;2022-07-10T12:06:59;101260.42;;;22.32;35.73
43281;BME280;62175;49.416;8.690;2022-07-10T12:09:26;101256.49;;;22.58;35.32
43281;BME280;62175;49.416;8.690;2022-07-10T12:12:02;101261.84;;;21.96;35.27
43281;BME280;62175;49.416;8.690;2022-07-10T12:14:30;101248.88;;;22.52;34.68
43281;BME280;62175;49.416;8.690;2022-07-10T12:16:58;101252.20;;;22.54;35.11
43281;BME280;62175;49.416;8.690;2022-07-10T12:19:27;101254.84;;;22.35;34.57
43281;BME280;62175;49.416;8.690;2022-07-10T12:21:56;101253.81;;;22.40;35.72
43281;BME280;62175;49.416;8.690;2022-07-10T12:24:24;101256.21;;;22.37;35.82
43281;BME280;62175;49.416;8.690;2022-07-10T12:26:53;101256.33;;;22.67;35.24
43281;BME280;62175;49.416;8.690;2022-07-10T12:29:25;101256.81;;;22.13;35.76
43281;BME280;62175;49.416;8.690;2022-07-10T12:31:54;101251.85;;;22.45;35.84
43281;BME280;62175;49.416;8.690;2022-07-10T12:34:33;101251.63;;;22.23;36.44
43281;BME280;62175;49.416;8.690;2022-07-10T12:37:08;101252.68;;;22.59;36.01
43281;BME280;62175;49.416;8.690;2022-07-10T12:39:36;101249.80;;;22.59;36.51
43281;BME280;62175;49.416;8.690;2022-07-10T12:42:05;101252.31;;;22.73;36.41
43281;BME280;62175;49.416;8.690;2022-07-10T12:44:35;101251.50;;;22.79;36.71
43281;BME280;62175;49.416;8.690;2022-07-10T12:47:03;101249.00;;;22.71;36.05
43281;BME280;62175;49.416;8.690;2022-07-10T12:49:48;101259.27;;;22.60;36.58
43281;BME280;62175;49.416;8.690;2022-07-10T12:52:20;101254.34;;;22.18;36.74
43281;BME280;62175;49.416;8.690;2022-07-10T12:54:47;101245.53;;;22.57;36.43
43281;BME280;62175;49.416;8.690;2022-07-10T12:57:15;101249.34;;;22.02;36.15
43281;BME280;62175;49.416;8.690;2022-07-10T12:59:42;101248.52;;;22.31;36.04
43281;BME280;62175;49.416;8.690;2022-07-10T13:02:18;101245.10;;;22.26;36.23
43281;BME280;62175;49.416;8.690;2022-07-10T13:04:53;101239.07;;;22.48;36.57
43281;BME280;62175;49.416;8.690;2022-07-10T13:07:29;101235.14;;;22.47;36.39